Time;durP1;ratioP1;P1;durP2;ratioP2;P2;SDS_P1;SDS_P2;PMS_P1;PMS_P2;Temp;Humidity;BMP_temperature;BMP_pressure;BME280_temperature;BME280_humidity;BME280_pressure;Samples;Min_cycle;Max_cycle;Signal;HPM_P1;HPM_P2
2021/08/13 00:01:17;;;;;;;9.73;8.77;;;22.30;99.90;;;;;;4987415;28;20200;-80
2021/08/13 00:03:42;;;;;;;10.37;9.03;;;22.40;99.90;;;;;;4986118;28;20200;-79
2021/08/13 00:06:08;;;;;;;10.87;8.50;;;22.50;99.90;;;;;;4986360;28;20176;-79
2021/08/13 00:08:34;;;;;;;9.77;8.77;;;22.60;99.90;;;;;;4987337;28;20172;-79
2021/08/13 00:11:00;;;;;;;9.27;8.43;;;22.60;99.90;;;;;;4985599;28;20180;-79
2021/08/13 00:13:26;;;;;;;9.53;8.57;;;22.70;99.90;;;;;;4987535;28;20204;-79
2021/08/13 00:15:51;;;;;;;9.00;8.20;;;22.70;99.90;;;;;;4985490;28;20185;-79
2021/08/13 00:18:17;;;;;;;9.23;8.33;;;22.70;99.90;;;;;;4985445;28;20180;-79
2021/08/13 00:20:43;;;;;;;9.60;8.63;;;22.70;99.90;;;;;;4985419;28;20200;-79
2021/08/13 00:23:09;;;;;;;9.97;8.37;;;22.70;99.90;;;;;;4985247;28;20226;-79
2021/08/13 00:25:35;;;;;;;9.27;8.37;;;22.70;99.90;;;;;;4986994;28;20558;-79
2021/08/13 00:28:01;;;;;;;8.73;8.03;;;22.70;99.90;;;;;;4985963;28;20180;-79
2021/08/13 00:30:27;;;;;;;9.00;8.13;;;22.80;99.90;;;;;;4987676;28;20176;-79
2021/08/13 00:32:52;;;;;;;10.63;8.43;;;22.70;99.90;;;;;;4985124;28;20215;-79
2021/08/13 00:35:18;;;;;;;9.33;8.30;;;22.80;99.90;;;;;;4986646;28;20192;-79
2021/08/13 00:37:44;;;;;;;8.97;8.10;;;22.80;99.90;;;;;;4985312;28;20267;-79
2021/08/13 00:40:10;;;;;;;9.77;8.87;;;22.70;99.90;;;;;;4986321;28;20263;-79
2021/08/13 00:42:36;;;;;;;10.83;9.73;;;22.50;99.90;;;;;;4986730;28;20251;-79
2021/08/13 00:45:03;;;;;;;10.73;9.73;;;22.40;99.90;;;;;;4985425;28;20625;-79
2021/08/13 00:47:29;;;;;;;11.40;8.87;;;22.30;99.90;;;;;;4984349;28;20259;-78
2021/08/13 00:49:55;;;;;;;9.83;8.90;;;22.30;99.90;;;;;;4980105;28;20622;-78
2021/08/13 00:52:21;;;;;;;9.43;8.13;;;22.20;99.90;;;;;;4979748;28;20197;-78
2021/08/13 00:54:47;;;;;;;10.97;9.13;;;22.20;99.90;;;;;;4978300;28;20699;-77
2021/08/13 00:57:13;;;;;;;10.47;9.47;;;22.20;99.90;;;;;;4980749;28;20285;-78
2021/08/13 00:59:48;;;;;;;9.30;8.30;;;22.10;99.90;;;;;;4981488;28;20738;-80
2021/08/13 01:02:14;;;;;;;8.93;7.87;;;22.10;99.90;;;;;;4979812;28;20207;-78
2021/08/13 01:04:40;;;;;;;9.87;8.57;;;22.20;99.90;;;;;;4980413;28;20205;-80
2021/08/13 01:07:09;;;;;;;10.30;8.20;;;22.20;99.90;;;;;;4978699;28;20185;-77
2021/08/13 01:09:39;;;;;;;8.60;7.73;;;22.20;99.90;;;;;;4974855;28;20211;-77
2021/08/13 01:12:21;;;;;;;8.70;7.93;;;22.30;99.90;;;;;;4976290;28;20235;-78
2021/08/13 01:14:47;;;;;;;9.00;8.07;;;22.20;99.90;;;;;;4974080;28;20239;-78
2021/08/13 01:17:15;;;;;;;9.27;8.30;;;22.30;99.90;;;;;;4974410;28;20592;-77
2021/08/13 01:20:06;;;;;;;9.23;7.93;;;22.10;99.90;;;;;;4975748;28;20208;-77
2021/08/13 01:23:00;;;;;;;8.70;7.80;;;22.20;99.90;;;;;;4974589;28;20315;-78
2021/08/13 01:25:31;;;;;;;8.20;7.33;;;22.10;99.90;;;;;;4974162;28;20691;-77
2021/08/13 01:28:04;;;;;;;8.23;7.00;;;22.10;99.90;;;;;;4974255;28;20234;-76
2021/08/13 01:30:32;;;;;;;8.07;6.80;;;22.10;99.90;;;;;;4974293;28;20180;-77
2021/08/13 01:33:01;;;;;;;6.90;6.13;;;22.20;99.90;;;;;;4958166;28;20212;-77
2021/08/13 01:36:03;;;;;;;7.40;5.93;;;22.30;99.90;;;;;;4973616;28;20176;-78
2021/08/13 01:38:30;;;;;;;11.27;6.70;;;22.30;99.90;;;;;;4945240;28;20205;-77
2021/08/13 01:41:00;;;;;;;9.57;7.00;;;22.40;99.90;;;;;;4971331;28;20700;-77
2021/08/13 01:43:27;;;;;;;9.57;7.23;;;22.40;99.90;;;;;;4973737;28;20220;-77
2021/08/13 01:45:54;;;;;;;8.00;6.77;;;22.40;99.90;;;;;;4975053;28;20208;-77
2021/08/13 01:48:21;;;;;;;7.90;7.20;;;22.20;99.90;;;;;;4975140;28;20790;-77
2021/08/13 01:50:47;;;;;;;8.50;7.80;;;22.20;99.90;;;;;;4973603;28;20188;-77
2021/08/13 01:53:14;;;;;;;8.40;7.50;;;22.00;99.90;;;;;;4973291;28;20208;-77
2021/08/13 01:55:41;;;;;;;8.60;7.63;;;21.90;99.90;;;;;;4974963;28;20180;-77
2021/08/13 01:58:07;;;;;;;8.33;7.53;;;21.90;99.90;;;;;;4976868;28;20196;-78
2021/08/13 02:00:34;;;;;;;8.00;7.17;;;21.80;99.90;;;;;;4973264;28;20212;-77
2021/08/13 02:03:01;;;;;;;11.60;7.27;;;21.90;99.90;;;;;;4971613;28;20211;-78
2021/08/13 02:05:29;;;;;;;7.83;6.63;;;21.90;99.90;;;;;;4972962;28;20177;-78
2021/08/13 02:07:57;;;;;;;7.47;6.77;;;22.00;99.90;;;;;;4974936;28;20243;-77
2021/08/13 02:10:25;;;;;;;9.10;6.90;;;22.00;99.90;;;;;;4974822;28;20584;-78
2021/08/13 02:12:50;;;;;;;9.73;6.70;;;22.10;99.90;;;;;;4973362;28;20595;-77
2021/08/13 02:15:16;;;;;;;8.57;7.23;;;22.00;99.90;;;;;;4974492;28;20189;-77
2021/08/13 02:17:55;;;;;;;7.63;7.00;;;22.10;99.90;;;;;;4974927;28;20271;-77
2021/08/13 02:20:22;;;;;;;8.27;7.47;;;22.10;99.90;;;;;;4974637;28;20966;-77
2021/08/13 02:22:48;;;;;;;8.70;6.13;;;22.10;99.90;;;;;;4974123;28;20187;-77
2021/08/13 02:25:13;;;;;;;7.20;6.60;;;22.00;99.90;;;;;;4974442;28;20636;-77
2021/08/13 02:27:40;;;;;;;8.93;6.83;;;21.90;99.90;;;;;;4974737;28;20212;-77
2021/08/13 02:30:07;;;;;;;7.47;6.77;;;21.90;99.90;;;;;;4975359;28;20758;-78
2021/08/13 02:32:34;;;;;;;7.30;6.60;;;21.80;99.90;;;;;;4974852;28;20177;-77
2021/08/13 02:35:01;;;;;;;10.60;7.60;;;21.80;99.90;;;;;;4974449;28;20282;-77
2021/08/13 02:37:54;;;;;;;8.13;7.07;;;21.70;99.90;;;;;;4974622;28;20184;-78
2021/08/13 02:40:27;;;;;;;7.27;6.67;;;21.70;99.90;;;;;;4974683;28;20240;-77
2021/08/13 02:43:04;;;;;;;7.40;6.67;;;21.70;99.90;;;;;;4972931;28;20196;-78
2021/08/13 02:45:34;;;;;;;7.57;6.87;;;21.60;99.90;;;;;;4974578;28;20177;-78
2021/08/13 02:48:01;;;;;;;7.60;7.00;;;21.60;99.90;;;;;;4974295;28;20173;-77
2021/08/13 02:50:30;;;;;;;6.57;6.07;;;21.60;99.90;;;;;;4974503;28;20177;-77
2021/08/13 02:53:03;;;;;;;7.23;6.57;;;21.50;99.90;;;;;;4973187;28;20216;-77
2021/08/13 02:55:58;;;;;;;8.63;7.00;;;21.50;99.90;;;;;;4974311;28;20195;-78
2021/08/13 02:58:29;;;;;;;7.63;6.87;;;21.50;99.90;;;;;;4973356;28;20556;-79
2021/08/13 03:00:57;;;;;;;7.27;6.60;;;21.40;99.90;;;;;;4974159;28;20647;-78
2021/08/13 03:03:29;;;;;;;6.80;6.20;;;21.00;99.90;;;;;;4974052;28;20200;-77
2021/08/13 03:05:57;;;;;;;7.40;6.70;;;21.30;99.90;;;;;;4974181;28;20643;-77
2021/08/13 03:08:24;;;;;;;7.23;6.53;;;21.30;99.90;;;;;;4972616;28;20703;-77
2021/08/13 03:10:50;;;;;;;8.90;6.50;;;21.20;99.90;;;;;;4973926;28;20177;-77
2021/08/13 03:13:17;;;;;;;8.60;6.80;;;21.20;99.90;;;;;;4972989;28;20283;-78
2021/08/13 03:15:45;;;;;;;7.70;6.80;;;21.00;99.90;;;;;;4973629;28;20592;-77
2021/08/13 03:18:11;;;;;;;7.47;6.13;;;21.00;99.90;;;;;;4973747;28;20206;-78
2021/08/13 03:20:38;;;;;;;8.27;6.97;;;20.90;99.90;;;;;;4973584;28;20218;-77
2021/08/13 03:23:05;;;;;;;8.07;7.10;;;20.90;99.90;;;;;;4972366;28;20745;-77
2021/08/13 03:25:31;;;;;;;7.17;6.13;;;20.90;99.90;;;;;;4973641;28;20210;-77
2021/08/13 03:27:57;;;;;;;8.10;6.10;;;20.90;99.90;;;;;;4973181;28;20235;-77
2021/08/13 03:30:23;;;;;;;7.80;6.63;;;20.90;99.90;;;;;;4972332;28;20176;-77
2021/08/13 03:32:51;;;;;;;6.90;6.23;;;20.90;99.90;;;;;;4973448;28;20180;-77
2021/08/13 03:35:17;;;;;;;7.43;5.83;;;20.80;99.90;;;;;;4976457;28;20188;-78
2021/08/13 03:37:43;;;;;;;6.30;5.70;;;20.70;99.90;;;;;;4977384;28;20181;-76
2021/08/13 03:40:09;;;;;;;6.43;5.83;;;20.70;99.90;;;;;;4977810;28;20686;-77
2021/08/13 03:42:35;;;;;;;13.20;6.57;;;20.60;99.90;;;;;;4979855;28;20180;-77
2021/08/13 03:45:10;;;;;;;7.33;6.07;;;20.50;99.90;;;;;;4977602;28;20238;-79
2021/08/13 03:47:36;;;;;;;6.93;6.13;;;20.50;99.90;;;;;;4984410;28;20191;-79
2021/08/13 03:50:02;;;;;;;9.73;6.17;;;20.60;99.90;;;;;;4989199;28;20185;-79
2021/08/13 03:52:27;;;;;;;7.47;6.77;;;20.50;99.90;;;;;;4989944;28;20191;-79
2021/08/13 03:54:53;;;;;;;6.40;5.80;;;20.50;99.90;;;;;;4990830;28;20204;-79
2021/08/13 03:57:18;;;;;;;6.33;5.57;;;20.50;99.90;;;;;;4990552;28;20188;-79
2021/08/13 03:59:44;;;;;;;7.27;5.67;;;20.50;99.90;;;;;;4989812;28;20208;-79
2021/08/13 04:02:10;;;;;;;5.43;4.93;;;20.50;99.90;;;;;;4985497;28;20194;-78
2021/08/13 04:04:35;;;;;;;8.17;5.40;;;20.50;99.90;;;;;;4975023;28;20211;-78
2021/08/13 04:07:01;;;;;;;6.93;5.73;;;20.50;99.90;;;;;;4976070;28;20212;-77
2021/08/13 04:09:27;;;;;;;6.30;5.33;;;20.30;99.90;;;;;;4976152;28;20208;-77
2021/08/13 04:11:52;;;;;;;7.70;5.67;;;20.30;99.90;;;;;;4975608;28;20181;-78
2021/08/13 04:14:18;;;;;;;6.07;4.60;;;20.30;99.90;;;;;;4977059;28;20219;-77
2021/08/13 04:16:44;;;;;;;7.23;5.87;;;20.30;99.90;;;;;;4976263;28;20185;-78
2021/08/13 04:19:09;;;;;;;6.13;5.43;;;20.30;99.90;;;;;;4977024;28;20203;-77
2021/08/13 04:21:35;;;;;;;6.00;5.40;;;20.20;99.90;;;;;;4975658;28;20177;-77
2021/08/13 04:24:01;;;;;;;5.90;5.07;;;20.10;99.90;;;;;;4976921;28;20219;-77
2021/08/13 04:26:27;;;;;;;7.87;5.63;;;20.10;99.90;;;;;;4976756;28;20180;-77
2021/08/13 04:28:52;;;;;;;7.90;5.17;;;20.10;99.90;;;;;;4976380;28;20181;-78
2021/08/13 04:31:18;;;;;;;6.50;5.17;;;20.20;99.90;;;;;;4976605;28;20258;-77
2021/08/13 04:33:44;;;;;;;6.60;5.30;;;20.20;99.90;;;;;;4981672;28;20204;-77
2021/08/13 04:36:09;;;;;;;7.13;5.50;;;20.20;99.90;;;;;;4983722;28;20251;-78
2021/08/13 04:38:35;;;;;;;14.83;4.77;;;20.30;99.90;;;;;;4984480;28;20200;-79
2021/08/13 04:41:01;;;;;;;9.30;5.13;;;20.30;99.90;;;;;;4986789;28;20212;-80
2021/08/13 04:43:26;;;;;;;6.30;4.83;;;20.30;99.90;;;;;;4981362;28;20220;-78
2021/08/13 04:45:52;;;;;;;6.57;4.97;;;20.30;99.90;;;;;;4982915;28;20267;-79
2021/08/13 04:48:18;;;;;;;5.73;5.20;;;20.30;99.90;;;;;;4988539;28;20184;-79
2021/08/13 04:50:43;;;;;;;5.50;5.00;;;20.30;99.90;;;;;;4986099;28;20189;-78
2021/08/13 04:53:09;;;;;;;5.57;5.00;;;20.40;99.90;;;;;;4986168;28;20200;-78
2021/08/13 04:55:35;;;;;;;5.63;4.63;;;20.50;99.90;;;;;;4986392;28;20219;-78
2021/08/13 04:58:00;;;;;;;6.37;4.90;;;20.40;99.90;;;;;;4982237;28;20188;-78
2021/08/13 05:00:26;;;;;;;6.63;4.77;;;20.50;99.90;;;;;;4983484;28;20243;-78
2021/08/13 05:02:52;;;;;;;5.47;4.13;;;20.50;99.90;;;;;;4984206;28;20189;-80
2021/08/13 05:05:18;;;;;;;8.07;5.07;;;20.50;99.90;;;;;;4984739;28;20204;-79
2021/08/13 05:07:44;;;;;;;8.00;4.60;;;20.50;99.90;;;;;;4983914;28;20185;-79
2021/08/13 05:10:12;;;;;;;6.73;4.80;;;20.60;99.90;;;;;;4981171;28;20180;-79
2021/08/13 05:12:39;;;;;;;5.97;4.60;;;20.50;99.90;;;;;;4981235;28;20188;-79
2021/08/13 05:15:06;;;;;;;7.53;4.80;;;20.50;99.90;;;;;;4982144;28;20204;-79
2021/08/13 05:17:33;;;;;;;6.60;5.03;;;20.60;99.90;;;;;;4982779;28;20188;-79
2021/08/13 05:19:59;;;;;;;6.90;5.03;;;20.60;99.90;;;;;;4980186;28;20208;-79
2021/08/13 05:22:25;;;;;;;5.63;4.53;;;20.60;99.90;;;;;;4981194;28;20177;-79
2021/08/13 05:24:50;;;;;;;5.03;4.10;;;20.70;99.90;;;;;;4982679;28;20271;-79
2021/08/13 05:27:16;;;;;;;5.80;4.10;;;20.70;99.90;;;;;;4981302;28;20268;-79
2021/08/13 05:29:42;;;;;;;7.70;4.60;;;20.80;99.90;;;;;;4982708;28;20264;-79
2021/08/13 05:32:08;;;;;;;7.73;4.50;;;20.90;99.90;;;;;;4988985;28;20256;-79
2021/08/13 05:34:33;;;;;;;6.60;4.70;;;21.00;99.90;;;;;;4988910;28;20204;-79
2021/08/13 05:36:59;;;;;;;8.17;3.90;;;21.10;99.90;;;;;;4990313;28;20925;-79
2021/08/13 05:39:25;;;;;;;4.47;3.37;;;21.10;99.90;;;;;;4990059;28;20187;-79
2021/08/13 05:41:51;;;;;;;5.20;3.10;;;21.10;99.90;;;;;;4988732;28;20180;-79
2021/08/13 05:44:17;;;;;;;4.10;2.90;;;21.10;99.90;;;;;;4980786;28;20228;-79
2021/08/13 05:46:43;;;;;;;4.90;2.80;;;21.20;99.90;;;;;;4980513;28;20195;-79
2021/08/13 05:49:08;;;;;;;7.10;3.67;;;21.30;99.90;;;;;;4980070;28;20211;-78
2021/08/13 05:51:34;;;;;;;6.70;3.10;;;21.30;99.90;;;;;;4980564;28;20181;-79
2021/08/13 05:54:00;;;;;;;6.50;3.20;;;21.40;99.90;;;;;;4980550;28;20200;-79
2021/08/13 05:56:26;;;;;;;5.50;2.90;;;21.40;99.90;;;;;;4981362;28;20195;-78
2021/08/13 05:58:53;;;;;;;3.17;2.87;;;21.50;99.90;;;;;;4985628;28;20191;-80
2021/08/13 06:01:19;;;;;;;5.23;3.27;;;21.50;99.90;;;;;;4981182;28;20196;-79
2021/08/13 06:03:44;;;;;;;8.67;3.40;;;21.50;99.90;;;;;;4981285;28;20231;-80
2021/08/13 06:06:10;;;;;;;4.30;2.80;;;21.50;99.90;;;;;;4978452;28;20177;-80
2021/08/13 06:08:36;;;;;;;4.57;3.00;;;21.50;99.90;;;;;;4981562;28;20729;-79
2021/08/13 06:11:01;;;;;;;6.40;2.90;;;21.50;99.90;;;;;;4982420;28;20261;-82
2021/08/13 06:13:28;;;;;;;6.07;2.80;;;21.50;99.90;;;;;;4982360;28;20551;-81
2021/08/13 06:15:55;;;;;;;5.23;2.50;;;21.60;99.90;;;;;;4983389;28;20184;-80
2021/08/13 06:18:20;;;;;;;6.23;2.93;;;21.60;99.90;;;;;;4982159;28;20180;-80
2021/08/13 06:20:46;;;;;;;2.97;2.57;;;21.70;99.90;;;;;;4983021;28;20204;-80
2021/08/13 06:23:12;;;;;;;4.80;2.57;;;21.60;99.90;;;;;;4983351;28;20192;-80
2021/08/13 06:25:38;;;;;;;3.10;2.50;;;21.70;99.90;;;;;;4980928;28;20176;-81
2021/08/13 06:28:04;;;;;;;4.60;3.53;;;21.70;99.90;;;;;;4981285;28;20177;-80
2021/08/13 06:30:30;;;;;;;4.70;2.50;;;21.80;99.90;;;;;;4982329;28;20191;-81
2021/08/13 06:32:56;;;;;;;3.00;2.70;;;21.90;99.90;;;;;;4982158;28;20180;-81
2021/08/13 06:35:21;;;;;;;4.50;2.97;;;22.00;99.90;;;;;;4982803;28;20187;-80
2021/08/13 06:37:53;;;;;;;3.70;2.90;;;22.10;99.90;;;;;;4983894;28;20184;-80
2021/08/13 06:40:20;;;;;;;6.20;3.10;;;22.20;99.90;;;;;;4984991;28;20259;-80
2021/08/13 06:42:47;;;;;;;6.43;2.93;;;22.30;99.90;;;;;;4983751;28;20177;-80
2021/08/13 06:45:15;;;;;;;3.50;2.50;;;22.20;99.90;;;;;;4984053;28;20204;-81
2021/08/13 06:47:41;;;;;;;3.30;2.60;;;22.30;99.90;;;;;;4982480;28;20264;-80
2021/08/13 06:50:08;;;;;;;4.20;2.50;;;22.50;99.90;;;;;;4977878;28;20385;-81
2021/08/13 06:52:34;;;;;;;4.50;2.60;;;22.50;99.90;;;;;;4980409;28;20215;-81
2021/08/13 06:55:07;;;;;;;6.63;3.03;;;22.50;99.90;;;;;;4984766;28;20204;-81
2021/08/13 06:57:33;;;;;;;4.63;2.87;;;22.50;99.90;;;;;;4984058;28;20185;-81
2021/08/13 07:00:04;;;;;;;5.77;2.80;;;22.60;99.90;;;;;;4986141;28;20670;-81
2021/08/13 07:02:30;;;;;;;3.93;2.87;;;22.60;99.90;;;;;;4987441;28;20263;-81
2021/08/13 07:04:59;;;;;;;5.40;2.50;;;22.60;99.90;;;;;;4986747;28;20200;-81
2021/08/13 07:07:24;;;;;;;4.30;2.33;;;22.50;99.90;;;;;;4984989;28;20227;-80
2021/08/13 07:09:50;;;;;;;5.93;3.27;;;22.50;99.90;;;;;;4983763;28;20184;-81
2021/08/13 07:12:16;;;;;;;6.20;3.47;;;22.50;99.90;;;;;;4984404;28;20195;-80
2021/08/13 07:14:43;;;;;;;4.60;3.00;;;22.50;99.90;;;;;;4984117;28;20204;-80
2021/08/13 07:17:09;;;;;;;4.43;3.13;;;22.50;99.90;;;;;;4982167;28;20196;-80
2021/08/13 07:19:36;;;;;;;7.50;3.13;;;22.70;99.90;;;;;;4986598;28;20206;-80
2021/08/13 07:22:03;;;;;;;5.63;3.27;;;22.70;99.90;;;;;;4985425;28;20184;-80
2021/08/13 07:24:29;;;;;;;4.27;2.70;;;22.80;99.90;;;;;;4985856;28;20192;-80
2021/08/13 07:26:54;;;;;;;4.73;2.97;;;22.80;99.90;;;;;;4983970;28;20191;-80
2021/08/13 07:29:22;;;;;;;3.87;2.90;;;22.70;99.90;;;;;;4984174;28;20199;-80
2021/08/13 07:31:48;;;;;;;4.97;2.50;;;22.70;99.90;;;;;;4983856;28;20263;-80
2021/08/13 07:34:13;;;;;;;6.03;2.50;;;22.80;99.90;;;;;;4983727;28;20196;-80
2021/08/13 07:36:39;;;;;;;4.63;3.00;;;22.80;99.90;;;;;;4987256;28;20879;-80
2021/08/13 07:39:05;;;;;;;3.73;2.70;;;22.80;99.90;;;;;;4987192;28;20183;-79
2021/08/13 07:41:32;;;;;;;4.97;2.40;;;22.90;99.90;;;;;;4986380;28;20232;-80
2021/08/13 07:43:58;;;;;;;5.37;2.80;;;23.10;99.90;;;;;;4968685;28;20220;-79
2021/08/13 07:46:24;;;;;;;3.83;2.57;;;23.10;99.90;;;;;;4984966;28;20185;-79
2021/08/13 07:48:49;;;;;;;5.10;2.80;;;23.10;99.90;;;;;;4982459;28;20220;-79
2021/08/13 07:51:15;;;;;;;4.13;1.90;;;23.30;99.90;;;;;;4983294;28;20191;-79
2021/08/13 07:53:41;;;;;;;5.53;2.40;;;23.40;99.90;;;;;;4984334;28;20710;-80
2021/08/13 07:56:07;;;;;;;5.00;2.63;;;23.50;99.90;;;;;;4983749;28;20698;-80
2021/08/13 07:58:32;;;;;;;3.53;2.43;;;23.50;99.90;;;;;;4983062;28;20173;-79
2021/08/13 08:01:00;;;;;;;6.20;2.47;;;23.60;99.90;;;;;;4984315;28;20219;-79
2021/08/13 08:03:26;;;;;;;4.30;2.43;;;23.60;99.90;;;;;;4982525;28;20567;-79
2021/08/13 08:05:52;;;;;;;4.87;2.67;;;23.60;99.90;;;;;;4982830;28;20187;-79
2021/08/13 08:08:17;;;;;;;4.57;2.50;;;23.70;99.90;;;;;;4982793;28;20236;-79
2021/08/13 08:10:46;;;;;;;4.63;2.00;;;23.80;99.90;;;;;;4985160;28;20177;-79
2021/08/13 08:13:21;;;;;;;2.13;1.90;;;23.90;99.90;;;;;;4985151;28;20212;-79
2021/08/13 08:15:47;;;;;;;4.83;2.30;;;23.80;99.90;;;;;;4984608;28;20188;-79
2021/08/13 08:18:13;;;;;;;5.20;1.93;;;23.80;99.90;;;;;;4984308;28;20203;-79
2021/08/13 08:20:39;;;;;;;4.73;2.20;;;23.80;99.90;;;;;;4985280;28;20219;-79
2021/08/13 08:23:05;;;;;;;4.93;2.27;;;23.90;99.90;;;;;;4988351;28;20288;-80
2021/08/13 08:25:32;;;;;;;6.03;2.30;;;24.00;99.90;;;;;;4988484;28;20271;-79
2021/08/13 08:27:58;;;;;;;5.27;2.20;;;24.00;99.90;;;;;;4988105;28;20178;-79
2021/08/13 08:30:24;;;;;;;3.77;2.50;;;24.00;99.90;;;;;;4988634;28;20253;-80
2021/08/13 08:32:50;;;;;;;4.93;2.43;;;24.10;99.90;;;;;;4988455;28;20177;-80
2021/08/13 08:35:15;;;;;;;4.93;2.67;;;24.20;99.90;;;;;;4988459;28;20180;-79
2021/08/13 08:38:00;;;;;;;5.00;2.50;;;24.50;99.90;;;;;;4988756;28;20211;-79
2021/08/13 08:40:35;;;;;;;6.60;2.30;;;24.30;99.90;;;;;;4986869;28;20215;-79
2021/08/13 08:43:05;;;;;;;4.13;2.43;;;24.30;99.90;;;;;;4987106;28;20637;-79
2021/08/13 08:45:37;;;;;;;5.20;2.20;;;24.20;99.90;;;;;;4987191;28;20176;-79
2021/08/13 08:48:07;;;;;;;4.50;2.37;;;24.10;99.90;;;;;;4988192;28;20240;-79
2021/08/13 08:50:36;;;;;;;4.73;2.53;;;24.20;99.90;;;;;;4988292;28;20247;-79
2021/08/13 08:53:07;;;;;;;4.93;2.40;;;24.10;99.90;;;;;;4987466;28;20211;-79
2021/08/13 08:55:33;;;;;;;4.27;2.70;;;24.30;99.90;;;;;;4986120;28;20199;-79
2021/08/13 08:58:01;;;;;;;6.03;2.53;;;24.50;99.90;;;;;;4985843;28;20192;-79
2021/08/13 09:00:27;;;;;;;5.73;2.73;;;24.50;99.90;;;;;;4987726;28;20223;-79
2021/08/13 09:02:54;;;;;;;3.23;2.17;;;24.50;99.90;;;;;;4987750;28;20176;-79
2021/08/13 09:05:19;;;;;;;4.87;2.27;;;24.50;99.90;;;;;;4986050;28;20631;-79
2021/08/13 09:07:46;;;;;;;6.53;2.67;;;24.50;99.90;;;;;;4969788;28;20191;-79
2021/08/13 09:10:12;;;;;;;3.27;1.90;;;24.60;99.90;;;;;;4987908;28;20183;-79
2021/08/13 09:12:39;;;;;;;4.53;2.53;;;24.70;99.90;;;;;;4987104;28;20195;-79
2021/08/13 09:15:31;;;;;;;5.30;2.33;;;24.70;99.90;;;;;;4985706;28;20184;-79
2021/08/13 09:18:20;;;;;;;6.90;2.57;;;24.80;99.90;;;;;;4986822;28;20215;-79
2021/08/13 09:20:54;;;;;;;8.80;2.77;;;25.00;99.90;;;;;;4986038;28;20223;-79
2021/08/13 09:23:40;;;;;;;3.73;2.53;;;25.00;99.90;;;;;;4985692;28;20231;-79
2021/08/13 09:26:10;;;;;;;7.33;2.60;;;25.10;99.90;;;;;;4985566;28;20190;-79
2021/08/13 09:28:50;;;;;;;4.50;2.60;;;25.20;99.90;;;;;;4985505;28;20177;-80
2021/08/13 09:31:41;;;;;;;4.37;2.87;;;25.40;99.90;;;;;;4986697;28;20176;-81
2021/08/13 09:34:14;;;;;;;4.77;2.37;;;25.50;99.90;;;;;;4984914;28;20216;-81
2021/08/13 09:36:53;;;;;;;3.43;2.50;;;25.60;99.90;;;;;;4984453;28;20265;-79
2021/08/13 09:39:29;;;;;;;4.13;3.00;;;25.70;99.90;;;;;;4985627;28;20185;-80
2021/08/13 09:41:59;;;;;;;4.77;2.50;;;25.70;99.90;;;;;;4985477;28;20216;-80
2021/08/13 09:44:32;;;;;;;5.97;2.47;;;25.80;99.90;;;;;;4985138;28;20244;-80
2021/08/13 09:46:59;;;;;;;4.40;2.63;;;25.90;99.90;;;;;;4976019;28;20208;-80
2021/08/13 09:49:26;;;;;;;5.77;3.00;;;25.90;99.90;;;;;;4981570;28;20181;-80
2021/08/13 09:51:52;;;;;;;6.40;2.73;;;25.90;99.90;;;;;;4978045;28;20212;-80
2021/08/13 09:54:18;;;;;;;5.53;2.40;;;26.00;99.90;;;;;;4986669;28;20227;-81
2021/08/13 09:56:44;;;;;;;8.33;2.83;;;26.20;99.90;;;;;;4980350;28;20263;-80
2021/08/13 09:59:15;;;;;;;5.93;2.77;;;26.30;99.90;;;;;;4982792;28;20182;-80
2021/08/13 10:01:52;;;;;;;3.63;2.40;;;26.40;99.90;;;;;;4983879;28;20208;-80
2021/08/13 10:04:19;;;;;;;5.40;2.40;;;26.40;99.90;;;;;;4984690;28;20204;-80
2021/08/13 10:06:45;;;;;;;6.00;2.50;;;26.40;99.90;;;;;;4982471;28;20177;-80
2021/08/13 10:09:28;;;;;;;8.43;2.67;;;26.30;99.90;;;;;;4978782;28;20248;-80
2021/08/13 10:11:55;;;;;;;3.83;2.03;;;26.10;99.90;;;;;;4976637;28;20183;-81
2021/08/13 10:14:41;;;;;;;6.13;2.50;;;26.20;99.90;;;;;;4980155;28;20212;-81
2021/08/13 10:17:08;;;;;;;3.90;2.30;;;26.40;99.90;;;;;;4983977;28;20192;-81
2021/08/13 10:19:34;;;;;;;3.90;2.47;;;26.40;99.90;;;;;;4974306;28;20208;-81
2021/08/13 10:22:00;;;;;;;4.30;2.20;;;26.40;99.90;;;;;;4981279;28;20183;-80
2021/08/13 10:24:30;;;;;;;3.87;1.93;;;26.60;99.90;;;;;;4976267;28;20310;-80
2021/08/13 10:26:56;;;;;;;3.50;2.13;;;26.60;99.90;;;;;;4980156;28;20719;-81
2021/08/13 10:29:26;;;;;;;7.70;2.10;;;26.80;99.90;;;;;;4983827;28;20543;-80
2021/08/13 10:31:51;;;;;;;3.47;2.50;;;27.00;99.90;;;;;;4984110;28;20196;-80
2021/08/13 10:34:17;;;;;;;4.17;2.47;;;27.00;99.90;;;;;;4980268;28;20208;-79
2021/08/13 10:36:46;;;;;;;6.50;2.70;;;27.20;99.90;;;;;;4977696;28;20181;-80
2021/08/13 10:39:15;;;;;;;5.30;2.73;;;27.20;99.90;;;;;;4976699;28;20189;-80
2021/08/13 10:41:44;;;;;;;9.83;2.90;;;27.40;99.90;;;;;;4976451;28;20821;-80
2021/08/13 10:44:13;;;;;;;5.17;2.70;;;27.50;99.90;;;;;;4971815;28;20220;-80
2021/08/13 10:46:40;;;;;;;6.57;2.60;;;27.70;99.90;;;;;;4977315;28;20319;-81
2021/08/13 10:49:09;;;;;;;4.13;2.57;;;27.70;99.90;;;;;;4979881;28;20623;-81
2021/08/13 10:51:35;;;;;;;5.77;2.77;;;27.70;99.90;;;;;;4981738;28;20181;-81
2021/08/13 10:54:08;;;;;;;5.50;2.93;;;27.70;99.90;;;;;;4980768;28;20722;-81
2021/08/13 10:56:44;;;;;;;5.93;2.60;;;27.80;99.90;;;;;;4982678;28;20205;-82
2021/08/13 10:59:11;;;;;;;6.60;3.00;;;27.80;99.90;;;;;;4983002;28;20204;-82
2021/08/13 11:01:56;;;;;;;5.17;2.47;;;27.80;99.90;;;;;;4982482;28;20201;-81
2021/08/13 11:04:39;;;;;;;12.20;3.10;;;28.00;99.90;;;;;;4978748;28;20205;-80
2021/08/13 11:07:05;;;;;;;9.87;2.90;;;28.10;99.90;;;;;;4973726;28;20183;-80
2021/08/13 11:09:33;;;;;;;4.00;2.63;;;28.30;99.90;;;;;;4980047;28;20263;-82
2021/08/13 11:12:06;;;;;;;5.57;2.67;;;28.50;99.90;;;;;;4971623;28;20245;-81
2021/08/13 11:14:34;;;;;;;8.93;2.83;;;28.60;99.90;;;;;;4976550;28;20252;-81
2021/08/13 11:17:02;;;;;;;6.37;2.83;;;28.50;99.90;;;;;;4974192;28;20593;-81
2021/08/13 11:19:28;;;;;;;4.63;3.03;;;28.50;99.90;;;;;;4982476;28;20188;-81
2021/08/13 11:22:02;;;;;;;4.73;2.93;;;28.70;99.90;;;;;;4980730;28;20185;-81
2021/08/13 11:24:50;;;;;;;6.30;2.93;;;28.60;99.90;;;;;;4981418;28;20208;-81
2021/08/13 11:27:16;;;;;;;6.40;3.07;;;28.60;99.90;;;;;;4980490;28;20957;-81
2021/08/13 11:29:45;;;;;;;7.20;3.20;;;28.60;99.90;;;;;;4967684;28;20181;-82
2021/08/13 11:32:14;;;;;;;5.97;3.00;;;28.90;99.90;;;;;;4973560;28;20188;-81
2021/08/13 11:34:47;;;;;;;4.63;3.00;;;28.90;99.90;;;;;;4979013;28;20283;-81
2021/08/13 11:37:31;;;;;;;4.43;2.67;;;29.00;99.90;;;;;;4974496;28;20208;-81
2021/08/13 11:40:29;;;;;;;3.20;2.80;;;29.00;99.90;;;;;;4980143;28;20223;-80
2021/08/13 11:42:59;;;;;;;8.80;3.00;;;29.30;99.90;;;;;;4969250;28;20572;-81
2021/08/13 11:45:42;;;;;;;4.70;3.33;;;29.30;99.90;;;;;;4978115;28;20276;-80
2021/08/13 11:48:09;;;;;;;3.77;2.93;;;29.40;99.90;;;;;;4975980;28;20724;-81
2021/08/13 11:50:35;;;;;;;7.23;3.00;;;29.50;99.90;;;;;;4975925;28;20186;-81
2021/08/13 11:53:01;;;;;;;6.43;2.80;;;29.60;99.90;;;;;;4968602;28;20204;-81
2021/08/13 11:55:29;;;;;;;5.77;3.23;;;29.50;99.90;;;;;;4977851;28;20200;-81
2021/08/13 11:58:00;;;;;;;6.50;3.53;;;29.50;99.90;;;;;;4983741;28;20193;-81
2021/08/13 12:00:31;;;;;;;5.10;3.30;;;29.60;99.90;;;;;;4981665;28;20200;-80
2021/08/13 12:03:01;;;;;;;5.37;3.20;;;29.60;99.90;;;;;;4976067;28;20193;-81
2021/08/13 12:05:32;;;;;;;6.03;3.30;;;29.70;99.90;;;;;;4977671;28;20215;-81
2021/08/13 12:08:00;;;;;;;5.63;3.07;;;29.70;99.90;;;;;;4982389;28;20234;-81
2021/08/13 12:10:30;;;;;;;6.73;3.40;;;29.80;99.90;;;;;;4982840;28;20184;-81
2021/08/13 12:12:56;;;;;;;5.00;3.57;;;29.80;99.90;;;;;;4985361;28;20185;-80
2021/08/13 12:15:27;;;;;;;5.20;3.03;;;29.80;99.90;;;;;;4994789;28;20176;-81
2021/08/13 12:17:53;;;;;;;6.93;3.43;;;29.60;99.90;;;;;;4975271;28;20197;-81
2021/08/13 12:20:19;;;;;;;6.57;3.57;;;29.70;99.90;;;;;;4982782;28;20200;-80
2021/08/13 12:22:45;;;;;;;8.77;3.50;;;29.90;99.90;;;;;;4984698;28;20180;-80
2021/08/13 12:25:12;;;;;;;5.93;3.50;;;29.80;99.90;;;;;;4981816;28;20225;-80
2021/08/13 12:27:40;;;;;;;6.20;3.73;;;30.00;99.90;;;;;;4982598;28;20173;-81
2021/08/13 12:30:22;;;;;;;8.77;3.40;;;30.00;99.90;;;;;;4981361;28;20190;-80
2021/08/13 12:32:49;;;;;;;7.00;3.50;;;30.10;99.90;;;;;;4982087;28;20177;-81
2021/08/13 12:35:15;;;;;;;5.67;3.60;;;30.10;99.90;;;;;;4977530;28;20185;-81
2021/08/13 12:37:41;;;;;;;4.87;3.70;;;30.10;99.90;;;;;;4981606;28;20195;-80
2021/08/13 12:40:11;;;;;;;6.33;3.97;;;30.20;99.90;;;;;;4980711;28;20201;-80
2021/08/13 12:42:39;;;;;;;8.40;3.60;;;30.00;99.90;;;;;;4999089;28;20185;-80
2021/08/13 12:45:09;;;;;;;4.53;3.37;;;30.10;99.90;;;;;;4984783;28;20188;-80
2021/08/13 12:47:36;;;;;;;7.53;3.80;;;30.20;99.90;;;;;;4990198;28;20191;-86
2021/08/13 12:50:02;;;;;;;5.93;3.60;;;30.30;99.90;;;;;;4993544;28;20180;-85
2021/08/13 12:52:28;;;;;;;7.13;3.80;;;30.40;99.90;;;;;;4993767;28;20252;-84